Etusivu
METAR-TAF:

METAR-TAF

Lentoasemat :

Hohn, Saksa

Leveyspiiri: 54-19N, Pituuspiiri: 009-32E, korkeus merenpinnasta: 12 m

Tämänhetkinen sää

Tämä raportti tehtiin 44 minuuttia sitten, kello 21.20 UTC
Tuuli 6 kn lännestä/lounaasta
Lämpötila 9°C
Kosteus 87%
Ilmanpaine 1015 hPa
Näkyvyys 10 km tai enemmän
Muutamia pilviä 2500 ft:n korkeudessa
Hajonneita pilviä 20000 ft:n korkeudessa

METAR: ETNH 252120Z 25006KT 9999 FEW025 BKN200 09/07 Q1015 BLU+

Aika: 00:04 (22:04 UTC)

Sääennuste

Tämä raportti tehtiin 6 tuntia ja 4 minuuttia sitten, kello 16.00 UTC
Ennuste voimassa 25. päivästä klo 17 UTC - 26. päivään klo 05 UTC
Tuuli 10 kn lännestä
Näkyvyys 10 km tai enemmän
Hajonneita pilviä 3000 ft:n korkeudessa
Ajoittain
25. päivästä klo 17 UTC - 25. päivään klo 21 UTC
Tuuli 10 kn lännestä puuskistuen 20 kn:hen
Näkyvyys 10 km tai enemmän
Hajonneita pilviä 2000 ft:n korkeudessa

TAF: ETNH 251600Z 2517/2605 28010KT 9999 NSW BKN030 TEMPO 2517/2521 28010G20KT 9999 NSW BKN020 BY ETGL

Säähavainnot ja -ennusteet yli 4000 lentoasemalta (METAR- ja TAF-raportit).

Käytössä olevat sääasemat on merkitty karttaan keltaisilla ja punaisilla pisteillä.

Aseta hiiri pisteen päälle nähdäksesi sääaseman nimen.

Klikkaa sitten nähdäksesi säähavainnot ja -ennusteet.

Kartan vaihtaminen: klikkaa mustalla rastilla varustettuja vihreitä pisteitä, niin voit zoomata sisään; viivalla varustettua vihreää pistettä, niin voit zoomata ulos tai vihreitä nuolia, niin pääset viereisille kartoille.


METAR-TAF: